Time;durP1;ratioP1;P1;durP2;ratioP2;P2;SDS_P1;SDS_P2;PMS_P1;PMS_P2;Temp;Humidity;BMP_temperature;BMP_pressure;BME280_temperature;BME280_humidity;BME280_pressure;Samples;Min_cycle;Max_cycle;Signal;HPM_P1;HPM_P2
2024/01/27 00:02:01;;;;;;;29.25;3.75;;;;;;;;;;5040716;28;20045;-80
2024/01/27 00:04:28;;;;;;;29.60;4.15;;;;;;;;;;5037934;28;20037;-81
2024/01/27 00:06:54;;;;;;;28.95;4.35;;;;;;;;;;5038592;28;20037;-81
2024/01/27 00:09:20;;;;;;;27.17;4.53;;;;;;;;;;5021613;28;20064;-80
2024/01/27 00:11:46;;;;;;;30.50;4.13;;;;;;;;;;5036708;28;20045;-80
2024/01/27 00:14:12;;;;;;;31.70;5.22;;;;;;;;;;5034293;28;20049;-81
2024/01/27 00:16:38;;;;;;;31.77;4.38;;;;;;;;;;5034895;28;20486;-80
2024/01/27 00:19:04;;;;;;;26.85;4.32;;;;;;;;;;5034620;28;20049;-80
2024/01/27 00:21:30;;;;;;;27.35;4.28;;;;;;;;;;5033906;28;20061;-80
2024/01/27 00:24:00;;;;;;;28.38;4.43;;;;;;;;;;5036230;28;20049;-80
2024/01/27 00:26:27;;;;;;;25.67;3.78;;;;;;;;;;5035740;28;20042;-80
2024/01/27 00:28:53;;;;;;;24.90;3.78;;;;;;;;;;5021386;28;20096;-81
2024/01/27 00:31:19;;;;;;;26.00;3.90;;;;;;;;;;5036517;28;20112;-81
2024/01/27 00:33:45;;;;;;;25.58;4.05;;;;;;;;;;5036359;28;20294;-81
2024/01/27 00:36:12;;;;;;;25.30;3.53;;;;;;;;;;5037281;28;20487;-80
2024/01/27 00:38:38;;;;;;;20.55;3.33;;;;;;;;;;5040317;28;20048;-81
2024/01/27 00:41:05;;;;;;;30.50;4.18;;;;;;;;;;5043920;28;20125;-80
2024/01/27 00:43:31;;;;;;;28.17;4.20;;;;;;;;;;5041965;28;20061;-80
2024/01/27 00:45:57;;;;;;;31.58;3.67;;;;;;;;;;5040105;28;20064;-81
2024/01/27 00:48:23;;;;;;;29.17;3.63;;;;;;;;;;5037672;28;20442;-80
2024/01/27 00:50:49;;;;;;;28.55;4.28;;;;;;;;;;5043662;28;20052;-80
2024/01/27 00:53:15;;;;;;;24.42;3.88;;;;;;;;;;5040810;28;20222;-81
2024/01/27 00:55:42;;;;;;;26.58;3.33;;;;;;;;;;5042366;28;20184;-80
2024/01/27 00:58:08;;;;;;;30.95;4.22;;;;;;;;;;5043513;28;20048;-81
2024/01/27 01:00:35;;;;;;;24.88;3.80;;;;;;;;;;5042427;28;20049;-80
2024/01/27 01:03:01;;;;;;;29.45;4.00;;;;;;;;;;5044106;28;20059;-81
2024/01/27 01:05:27;;;;;;;29.90;3.80;;;;;;;;;;5044391;28;20045;-81
2024/01/27 01:07:53;;;;;;;29.45;3.80;;;;;;;;;;5043753;28;20037;-80
2024/01/27 01:10:19;;;;;;;26.42;3.50;;;;;;;;;;5036066;28;20053;-81
2024/01/27 01:12:45;;;;;;;27.33;4.28;;;;;;;;;;5039710;28;20071;-80
2024/01/27 01:15:12;;;;;;;23.10;4.43;;;;;;;;;;5042239;28;20045;-81
2024/01/27 01:17:38;;;;;;;24.00;4.10;;;;;;;;;;5040515;28;20057;-81
2024/01/27 01:20:04;;;;;;;20.73;3.45;;;;;;;;;;5038230;28;20048;-81
2024/01/27 01:22:30;;;;;;;27.52;4.18;;;;;;;;;;5043051;28;20495;-80
2024/01/27 01:24:56;;;;;;;25.42;4.25;;;;;;;;;;5042601;28;20085;-81
2024/01/27 01:27:22;;;;;;;27.23;4.28;;;;;;;;;;5039738;28;20097;-81
2024/01/27 01:29:48;;;;;;;26.33;3.83;;;;;;;;;;5019824;28;20174;-81
2024/01/27 01:32:15;;;;;;;25.63;3.50;;;;;;;;;;5042539;28;20053;-81
2024/01/27 01:34:41;;;;;;;24.67;4.03;;;;;;;;;;5031500;28;20129;-80
2024/01/27 01:37:07;;;;;;;30.48;4.63;;;;;;;;;;5040453;28;20495;-81
2024/01/27 01:39:33;;;;;;;25.60;3.58;;;;;;;;;;5043009;28;20045;-81
2024/01/27 01:41:59;;;;;;;26.52;3.88;;;;;;;;;;5038736;28;20049;-80
2024/01/27 01:44:29;;;;;;;23.52;4.70;;;;;;;;;;5041926;28;20069;-81
2024/01/27 01:46:56;;;;;;;27.75;3.80;;;;;;;;;;5040633;28;20045;-80
2024/01/27 01:49:22;;;;;;;22.80;3.42;;;;;;;;;;5042722;28;20056;-80
2024/01/27 01:51:49;;;;;;;26.20;4.00;;;;;;;;;;5035642;28;20038;-81
2024/01/27 01:54:15;;;;;;;27.35;3.58;;;;;;;;;;5039103;28;20042;-80
2024/01/27 01:56:42;;;;;;;29.63;3.75;;;;;;;;;;5042067;28;20049;-80
2024/01/27 01:59:08;;;;;;;21.40;3.08;;;;;;;;;;5042880;28;20042;-80
2024/01/27 02:01:34;;;;;;;18.67;3.53;;;;;;;;;;5043187;28;20096;-81
2024/01/27 02:04:01;;;;;;;27.05;4.22;;;;;;;;;;5042806;28;20049;-80
2024/01/27 02:06:27;;;;;;;25.10;3.33;;;;;;;;;;5036184;28;20048;-80
2024/01/27 02:08:53;;;;;;;25.50;3.78;;;;;;;;;;5041655;28;20132;-81
2024/01/27 02:11:19;;;;;;;23.95;3.88;;;;;;;;;;5043072;28;20046;-81
2024/01/27 02:13:45;;;;;;;22.25;3.58;;;;;;;;;;5032435;28;20492;-80
2024/01/27 02:16:11;;;;;;;23.95;3.83;;;;;;;;;;5033486;28;20526;-80
2024/01/27 02:18:37;;;;;;;25.35;3.47;;;;;;;;;;5037492;28;20053;-81
2024/01/27 02:21:03;;;;;;;22.30;3.92;;;;;;;;;;5036949;28;20060;-80
2024/01/27 02:23:29;;;;;;;22.52;3.47;;;;;;;;;;5034949;28;20048;-80
2024/01/27 02:25:55;;;;;;;25.60;3.67;;;;;;;;;;5015727;28;20492;-81
2024/01/27 02:28:23;;;;;;;28.35;4.00;;;;;;;;;;5034300;28;20054;-80
2024/01/27 02:30:49;;;;;;;20.83;4.07;;;;;;;;;;5033550;28;20096;-81
2024/01/27 02:33:15;;;;;;;23.60;3.40;;;;;;;;;;5034187;28;20044;-81
2024/01/27 02:35:43;;;;;;;25.33;3.70;;;;;;;;;;5033988;28;20045;-81
2024/01/27 02:38:09;;;;;;;25.50;3.70;;;;;;;;;;5033958;28;20033;-81
2024/01/27 02:40:35;;;;;;;28.10;3.45;;;;;;;;;;5034218;28;20053;-81
2024/01/27 02:43:01;;;;;;;26.10;3.30;;;;;;;;;;5035092;28;20049;-80
2024/01/27 02:45:27;;;;;;;23.23;3.40;;;;;;;;;;5034625;28;20491;-81
2024/01/27 02:47:53;;;;;;;27.27;3.63;;;;;;;;;;5031657;28;20518;-81
2024/01/27 02:50:19;;;;;;;28.42;3.78;;;;;;;;;;5036828;28;20457;-80
2024/01/27 02:52:45;;;;;;;25.05;4.13;;;;;;;;;;5032715;28;20041;-80
2024/01/27 02:55:11;;;;;;;28.83;3.92;;;;;;;;;;5034859;28;20041;-80
2024/01/27 02:57:37;;;;;;;25.15;3.83;;;;;;;;;;5033275;28;20061;-80
2024/01/27 03:00:05;;;;;;;22.80;3.45;;;;;;;;;;5034199;28;20503;-81
2024/01/27 03:02:31;;;;;;;20.63;3.40;;;;;;;;;;5033378;28;20045;-81
2024/01/27 03:04:57;;;;;;;25.77;3.60;;;;;;;;;;5036364;28;20038;-81
2024/01/27 03:07:23;;;;;;;24.25;3.92;;;;;;;;;;5034767;28;20040;-81
2024/01/27 03:09:49;;;;;;;21.23;3.30;;;;;;;;;;5033557;28;20053;-80
2024/01/27 03:12:15;;;;;;;26.85;3.90;;;;;;;;;;5035282;28;20064;-81
2024/01/27 03:14:41;;;;;;;23.33;3.22;;;;;;;;;;5036701;28;20048;-81
2024/01/27 03:17:08;;;;;;;27.05;3.67;;;;;;;;;;5032787;28;20046;-81
2024/01/27 03:19:34;;;;;;;21.08;3.55;;;;;;;;;;5044431;28;20491;-81
2024/01/27 03:22:00;;;;;;;24.17;4.13;;;;;;;;;;5045227;28;20131;-81
2024/01/27 03:24:26;;;;;;;29.55;3.97;;;;;;;;;;5045109;28;20092;-80
2024/01/27 03:26:52;;;;;;;22.85;3.70;;;;;;;;;;5044503;28;20045;-81
2024/01/27 03:29:18;;;;;;;24.17;4.13;;;;;;;;;;5045767;28;20049;-80
2024/01/27 03:31:44;;;;;;;25.35;4.03;;;;;;;;;;5038461;28;20041;-80
2024/01/27 03:34:10;;;;;;;24.38;3.75;;;;;;;;;;5045350;28;20045;-80
2024/01/27 03:36:36;;;;;;;24.95;3.97;;;;;;;;;;5044900;28;20075;-81
2024/01/27 03:39:03;;;;;;;24.80;4.03;;;;;;;;;;5046238;28;20053;-80
2024/01/27 03:41:29;;;;;;;26.48;4.13;;;;;;;;;;5039394;28;20399;-81
2024/01/27 03:43:55;;;;;;;20.67;3.78;;;;;;;;;;5045954;28;20045;-81
2024/01/27 03:46:21;;;;;;;23.75;4.43;;;;;;;;;;5044094;28;20041;-80
2024/01/27 03:48:47;;;;;;;35.60;4.95;;;;;;;;;;5045770;28;20106;-80
2024/01/27 03:51:13;;;;;;;23.55;3.97;;;;;;;;;;5044761;28;20037;-81
2024/01/27 03:53:39;;;;;;;23.55;4.57;;;;;;;;;;5045819;28;20044;-81
2024/01/27 03:56:06;;;;;;;19.73;3.72;;;;;;;;;;5043812;28;20046;-80
2024/01/27 03:58:32;;;;;;;24.63;3.70;;;;;;;;;;5045597;28;20048;-81
2024/01/27 04:00:58;;;;;;;26.33;4.60;;;;;;;;;;5046698;28;20053;-80
2024/01/27 04:03:24;;;;;;;24.65;4.05;;;;;;;;;;5042784;28;20046;-81
2024/01/27 04:05:50;;;;;;;30.42;4.18;;;;;;;;;;5039899;28;20037;-81
2024/01/27 04:08:16;;;;;;;24.02;4.88;;;;;;;;;;5041470;28;20057;-80
2024/01/27 04:10:42;;;;;;;23.13;3.80;;;;;;;;;;5045995;28;20105;-81
2024/01/27 04:13:08;;;;;;;19.40;4.00;;;;;;;;;;5045510;28;20052;-80
2024/01/27 04:15:38;;;;;;;21.58;3.83;;;;;;;;;;5045411;28;20041;-80
2024/01/27 04:18:05;;;;;;;30.30;4.93;;;;;;;;;;5044351;28;20042;-81
2024/01/27 04:20:31;;;;;;;27.77;4.25;;;;;;;;;;5025638;28;20046;-80
2024/01/27 04:22:57;;;;;;;24.50;4.47;;;;;;;;;;5040368;28;20051;-81
2024/01/27 04:25:23;;;;;;;23.65;4.20;;;;;;;;;;5044685;28;20042;-80
2024/01/27 04:27:49;;;;;;;23.40;4.63;;;;;;;;;;5036644;28;20099;-80
2024/01/27 04:30:15;;;;;;;20.42;4.22;;;;;;;;;;5026890;28;20042;-80
2024/01/27 04:32:41;;;;;;;23.27;4.53;;;;;;;;;;5025514;28;20077;-80
2024/01/27 04:35:11;;;;;;;21.17;4.20;;;;;;;;;;5040623;28;20038;-80
2024/01/27 04:37:37;;;;;;;35.05;5.28;;;;;;;;;;5042241;28;20037;-80
2024/01/27 04:40:05;;;;;;;26.63;4.35;;;;;;;;;;5041659;28;20073;-81
2024/01/27 04:42:35;;;;;;;21.48;4.10;;;;;;;;;;5041820;28;20047;-81
2024/01/27 04:45:01;;;;;;;22.35;4.30;;;;;;;;;;5044556;28;20430;-81
2024/01/27 04:47:27;;;;;;;23.65;4.32;;;;;;;;;;5037373;28;20068;-80
2024/01/27 04:49:54;;;;;;;21.42;3.55;;;;;;;;;;5045036;28;20041;-80
2024/01/27 04:52:21;;;;;;;24.45;4.05;;;;;;;;;;5042442;28;20412;-80
2024/01/27 04:54:47;;;;;;;19.48;4.05;;;;;;;;;;5042396;28;20296;-81
2024/01/27 04:57:13;;;;;;;32.42;4.97;;;;;;;;;;5039066;28;20080;-81
2024/01/27 04:59:39;;;;;;;18.92;3.60;;;;;;;;;;5039311;28;20041;-80
2024/01/27 05:02:05;;;;;;;23.52;4.18;;;;;;;;;;5038023;28;20041;-81
2024/01/27 05:04:31;;;;;;;23.77;4.50;;;;;;;;;;5036250;28;20068;-80
2024/01/27 05:06:57;;;;;;;24.00;3.92;;;;;;;;;;5034425;28;20531;-81
2024/01/27 05:09:23;;;;;;;25.60;4.28;;;;;;;;;;5035094;28;20060;-80
2024/01/27 05:11:51;;;;;;;29.80;3.88;;;;;;;;;;5033856;28;20046;-81
2024/01/27 05:14:17;;;;;;;23.13;3.97;;;;;;;;;;5034819;28;20037;-80
2024/01/27 05:16:44;;;;;;;20.85;4.15;;;;;;;;;;5037599;28;20041;-81
2024/01/27 05:19:11;;;;;;;24.40;4.47;;;;;;;;;;5035199;28;20037;-80
2024/01/27 05:21:37;;;;;;;25.70;3.42;;;;;;;;;;5036013;28;20122;-81
2024/01/27 05:24:04;;;;;;;27.90;4.57;;;;;;;;;;5035017;28;20052;-80
2024/01/27 05:26:30;;;;;;;21.27;3.60;;;;;;;;;;5036301;28;20042;-81
2024/01/27 05:28:56;;;;;;;25.52;4.25;;;;;;;;;;5035304;28;20045;-81
2024/01/27 05:31:22;;;;;;;26.02;3.70;;;;;;;;;;5038616;28;20049;-81
2024/01/27 05:33:48;;;;;;;23.95;4.15;;;;;;;;;;5037526;28;20071;-81
2024/01/27 05:36:14;;;;;;;24.38;4.40;;;;;;;;;;5034953;28;20037;-80
2024/01/27 05:38:40;;;;;;;22.15;4.22;;;;;;;;;;5037903;28;20055;-80
2024/01/27 05:41:06;;;;;;;24.98;4.35;;;;;;;;;;5034644;28;20049;-81
2024/01/27 05:43:32;;;;;;;29.13;4.60;;;;;;;;;;5038639;28;20491;-80
2024/01/27 05:45:59;;;;;;;24.73;3.78;;;;;;;;;;5034618;28;20050;-81
2024/01/27 05:48:25;;;;;;;23.83;4.05;;;;;;;;;;5035147;28;20045;-80
2024/01/27 05:50:58;;;;;;;22.70;4.18;;;;;;;;;;5036115;28;20050;-81
2024/01/27 05:53:25;;;;;;;23.80;4.45;;;;;;;;;;5037795;28;20124;-81
2024/01/27 05:55:52;;;;;;;28.70;4.13;;;;;;;;;;5036427;28;20037;-81
2024/01/27 05:58:21;;;;;;;20.77;4.13;;;;;;;;;;5038008;28;20396;-81
2024/01/27 06:00:47;;;;;;;18.33;3.75;;;;;;;;;;5034516;28;20045;-80
2024/01/27 06:03:14;;;;;;;24.55;5.22;;;;;;;;;;5032520;28;20125;-80
2024/01/27 06:05:41;;;;;;;25.75;5.60;;;;;;;;;;5037020;28;20049;-80
2024/01/27 06:08:08;;;;;;;22.58;5.22;;;;;;;;;;5042873;28;20057;-80
2024/01/27 06:10:36;;;;;;;21.83;4.65;;;;;;;;;;5036655;28;20085;-81
2024/01/27 06:13:02;;;;;;;20.70;4.50;;;;;;;;;;5040948;28;20059;-80
2024/01/27 06:15:28;;;;;;;29.15;4.85;;;;;;;;;;5039959;28;20046;-81
2024/01/27 06:17:54;;;;;;;27.65;4.43;;;;;;;;;;5042381;28;20056;-80
2024/01/27 06:20:20;;;;;;;23.45;4.80;;;;;;;;;;5039742;28;20038;-80
2024/01/27 06:22:46;;;;;;;19.30;4.40;;;;;;;;;;5041912;28;20094;-81
2024/01/27 06:25:12;;;;;;;27.05;4.50;;;;;;;;;;5037663;28;20041;-80
2024/01/27 06:27:41;;;;;;;25.75;4.82;;;;;;;;;;5032076;28;20117;-80
2024/01/27 06:30:07;;;;;;;26.23;4.78;;;;;;;;;;5035764;28;20103;-80
2024/01/27 06:32:33;;;;;;;23.88;4.65;;;;;;;;;;5035391;28;20093;-80
2024/01/27 06:34:59;;;;;;;26.65;4.78;;;;;;;;;;5032343;28;20041;-81
2024/01/27 06:37:25;;;;;;;22.42;4.72;;;;;;;;;;5035875;28;20099;-81
2024/01/27 06:39:51;;;;;;;28.08;5.50;;;;;;;;;;5036169;28;20452;-80
2024/01/27 06:42:18;;;;;;;27.88;5.22;;;;;;;;;;5035293;28;20045;-80
2024/01/27 06:44:44;;;;;;;24.23;5.40;;;;;;;;;;5020416;28;20052;-80
2024/01/27 06:47:10;;;;;;;31.00;5.72;;;;;;;;;;5034629;28;20037;-80
2024/01/27 06:49:36;;;;;;;21.52;5.40;;;;;;;;;;5015847;28;20041;-81
2024/01/27 06:52:03;;;;;;;30.30;5.60;;;;;;;;;;5033009;28;20061;-81
2024/01/27 06:54:29;;;;;;;24.92;5.70;;;;;;;;;;5033020;28;20121;-81
2024/01/27 06:56:55;;;;;;;26.88;5.47;;;;;;;;;;5033937;28;20045;-80
2024/01/27 06:59:21;;;;;;;22.15;6.30;;;;;;;;;;5033798;28;20053;-81
2024/01/27 07:01:51;;;;;;;27.10;6.25;;;;;;;;;;5036582;28;20041;-80
2024/01/27 07:04:17;;;;;;;30.63;6.00;;;;;;;;;;5033319;28;20058;-81
2024/01/27 07:06:43;;;;;;;34.60;6.22;;;;;;;;;;5033800;28;20041;-80
2024/01/27 07:09:10;;;;;;;21.83;5.93;;;;;;;;;;5032232;28;20518;-80
2024/01/27 07:11:36;;;;;;;27.77;6.25;;;;;;;;;;5035176;28;20549;-80
2024/01/27 07:14:03;;;;;;;31.17;6.43;;;;;;;;;;5033466;28;20053;-80
2024/01/27 07:16:29;;;;;;;25.85;6.80;;;;;;;;;;5035061;28;20102;-80
2024/01/27 07:18:56;;;;;;;44.10;8.45;;;;;;;;;;5031375;28;20099;-80
2024/01/27 07:21:22;;;;;;;34.63;7.75;;;;;;;;;;5032890;28;20054;-80
2024/01/27 07:23:48;;;;;;;42.33;12.02;;;;;;;;;;5035791;28;20403;-80
2024/01/27 07:26:14;;;;;;;38.75;11.32;;;;;;;;;;5033587;28;20081;-81
2024/01/27 07:28:40;;;;;;;45.35;13.27;;;;;;;;;;5031671;28;20054;-80
2024/01/27 07:31:06;;;;;;;35.47;9.90;;;;;;;;;;5040381;28;20116;-80
2024/01/27 07:33:32;;;;;;;32.55;9.60;;;;;;;;;;5037771;28;20053;-80
2024/01/27 07:35:58;;;;;;;32.58;9.75;;;;;;;;;;5037966;28;20045;-80
2024/01/27 07:38:24;;;;;;;33.75;7.97;;;;;;;;;;5036635;28;20104;-80
2024/01/27 07:40:50;;;;;;;32.45;9.57;;;;;;;;;;5040858;28;20046;-80
2024/01/27 07:43:16;;;;;;;33.67;9.15;;;;;;;;;;5038170;28;20048;-80
2024/01/27 07:45:44;;;;;;;31.23;9.90;;;;;;;;;;5039612;28;20052;-80
2024/01/27 07:48:10;;;;;;;30.70;9.35;;;;;;;;;;5033181;28;20050;-80
2024/01/27 07:50:36;;;;;;;31.13;9.38;;;;;;;;;;5039086;28;20049;-80
2024/01/27 07:53:02;;;;;;;30.17;9.00;;;;;;;;;;5040173;28;20451;-80
2024/01/27 07:55:28;;;;;;;32.83;9.95;;;;;;;;;;5041290;28;20053;-79
2024/01/27 07:57:54;;;;;;;34.67;9.85;;;;;;;;;;5043692;28;20053;-80
2024/01/27 08:00:21;;;;;;;35.13;9.70;;;;;;;;;;5039880;28;20053;-79
2024/01/27 08:02:47;;;;;;;28.35;8.68;;;;;;;;;;5040500;28;20080;-80
2024/01/27 08:05:13;;;;;;;32.33;10.38;;;;;;;;;;5040877;28;20056;-80
2024/01/27 08:07:39;;;;;;;31.17;9.25;;;;;;;;;;5044395;28;20038;-80
2024/01/27 08:10:05;;;;;;;36.30;9.77;;;;;;;;;;5044894;28;20057;-79
2024/01/27 08:12:31;;;;;;;34.33;10.45;;;;;;;;;;5026487;28;20049;-80
2024/01/27 08:14:57;;;;;;;26.80;10.10;;;;;;;;;;5044181;28;20041;-81
2024/01/27 08:17:23;;;;;;;28.85;9.68;;;;;;;;;;5044241;28;20175;-80
2024/01/27 08:19:49;;;;;;;28.83;9.63;;;;;;;;;;5043715;28;20065;-80
2024/01/27 08:22:16;;;;;;;32.47;9.63;;;;;;;;;;5044764;28;20080;-80
2024/01/27 08:24:42;;;;;;;29.13;9.90;;;;;;;;;;5044173;28;20049;-81
2024/01/27 08:27:08;;;;;;;30.38;9.50;;;;;;;;;;5044585;28;20050;-81
2024/01/27 08:29:34;;;;;;;30.25;9.45;;;;;;;;;;5043552;28;20060;-80
2024/01/27 08:32:00;;;;;;;24.80;9.15;;;;;;;;;;5044321;28;20045;-80
2024/01/27 08:34:26;;;;;;;34.13;9.13;;;;;;;;;;5043888;28;20060;-80
2024/01/27 08:36:53;;;;;;;24.98;8.98;;;;;;;;;;5044037;28;20044;-81
2024/01/27 08:39:19;;;;;;;24.30;9.15;;;;;;;;;;5042369;28;20044;-80
2024/01/27 08:41:45;;;;;;;29.23;9.77;;;;;;;;;;5058097;28;20038;-80
2024/01/27 08:44:11;;;;;;;30.88;9.52;;;;;;;;;;5043443;28;20072;-80
2024/01/27 08:46:37;;;;;;;31.20;8.85;;;;;;;;;;5043751;28;20052;-80
2024/01/27 08:49:03;;;;;;;26.90;9.20;;;;;;;;;;5043426;28;20049;-80
2024/01/27 08:51:30;;;;;;;36.90;17.48;;;;;;;;;;5038923;28;20053;-81
2024/01/27 08:53:56;;;;;;;27.90;8.48;;;;;;;;;;5036347;28;20053;-80
2024/01/27 08:56:22;;;;;;;22.30;8.60;;;;;;;;;;5043324;28;20050;-81
2024/01/27 08:58:48;;;;;;;30.17;10.63;;;;;;;;;;5033326;28;20057;-80
2024/01/27 09:01:15;;;;;;;27.88;8.27;;;;;;;;;;5023548;28;20458;-81
2024/01/27 09:03:41;;;;;;;27.25;8.10;;;;;;;;;;5024085;28;20058;-80
2024/01/27 09:06:07;;;;;;;29.80;8.00;;;;;;;;;;5036016;28;20045;-81
2024/01/27 09:08:35;;;;;;;38.10;11.85;;;;;;;;;;5042998;28;20049;-80
2024/01/27 09:11:02;;;;;;;38.40;12.88;;;;;;;;;;5025513;28;20049;-80
2024/01/27 09:13:28;;;;;;;34.72;13.95;;;;;;;;;;5043162;28;20088;-80
2024/01/27 09:15:54;;;;;;;35.33;11.55;;;;;;;;;;5043507;28;20056;-81
2024/01/27 09:18:20;;;;;;;29.55;11.70;;;;;;;;;;5037369;28;20459;-80
2024/01/27 09:20:46;;;;;;;46.67;17.25;;;;;;;;;;5022476;28;20550;-80
2024/01/27 09:23:12;;;;;;;29.23;11.35;;;;;;;;;;5023590;28;20042;-81
2024/01/27 09:25:39;;;;;;;29.27;11.55;;;;;;;;;;5031876;28;20188;-81
2024/01/27 09:28:05;;;;;;;26.60;10.52;;;;;;;;;;5042521;28;20506;-80
2024/01/27 09:30:31;;;;;;;26.52;10.73;;;;;;;;;;5043355;28;20053;-81
2024/01/27 09:32:57;;;;;;;24.45;8.60;;;;;;;;;;5043059;28;20075;-81
2024/01/27 09:35:23;;;;;;;27.25;9.90;;;;;;;;;;5042994;28;20037;-80
2024/01/27 09:37:49;;;;;;;27.73;9.52;;;;;;;;;;5043740;28;20050;-80
2024/01/27 09:40:15;;;;;;;23.15;8.50;;;;;;;;;;5030034;28;20045;-81
2024/01/27 09:42:46;;;;;;;28.90;9.65;;;;;;;;;;5050573;28;20121;-80
2024/01/27 09:45:12;;;;;;;28.27;8.98;;;;;;;;;;5042767;28;20064;-79
2024/01/27 09:47:38;;;;;;;24.02;8.27;;;;;;;;;;5041819;28;20046;-80
2024/01/27 09:50:05;;;;;;;23.40;8.52;;;;;;;;;;5040349;28;20541;-80
2024/01/27 09:52:31;;;;;;;25.27;8.98;;;;;;;;;;5046368;28;20465;-81
2024/01/27 09:54:57;;;;;;;31.63;9.40;;;;;;;;;;5042323;28;20042;-80
2024/01/27 09:57:23;;;;;;;29.95;10.32;;;;;;;;;;5041896;28;20462;-82
2024/01/27 09:59:50;;;;;;;31.50;10.07;;;;;;;;;;5042364;28;20060;-81
2024/01/27 10:02:18;;;;;;;21.95;8.00;;;;;;;;;;5029469;28;20046;-81
2024/01/27 10:04:47;;;;;;;30.25;10.10;;;;;;;;;;5022479;28;20088;-81
2024/01/27 10:07:13;;;;;;;24.05;8.43;;;;;;;;;;5022553;28;20049;-79
2024/01/27 10:09:41;;;;;;;27.90;10.43;;;;;;;;;;5041950;28;20079;-81
2024/01/27 10:12:08;;;;;;;28.10;9.95;;;;;;;;;;5024082;28;20042;-80
2024/01/27 10:14:40;;;;;;;24.52;9.55;;;;;;;;;;5042978;28;20050;-80
2024/01/27 10:17:10;;;;;;;21.92;8.75;;;;;;;;;;5042342;28;20053;-80
2024/01/27 10:19:36;;;;;;;51.08;16.75;;;;;;;;;;5041681;28;20659;-82
2024/01/27 10:22:02;;;;;;;29.80;10.20;;;;;;;;;;5033378;28;20037;-80
2024/01/27 10:24:29;;;;;;;30.00;9.98;;;;;;;;;;5022345;28;20433;-80
2024/01/27 10:27:04;;;;;;;25.52;9.02;;;;;;;;;;5037944;28;20065;-81
2024/01/27 10:29:31;;;;;;;32.72;9.73;;;;;;;;;;5040470;28;20059;-80
2024/01/27 10:32:08;;;;;;;24.85;9.15;;;;;;;;;;5041516;28;20049;-80
2024/01/27 10:34:34;;;;;;;25.70;10.15;;;;;;;;;;5042056;28;20430;-81
2024/01/27 10:37:00;;;;;;;29.55;10.65;;;;;;;;;;5041663;28;20372;-81
2024/01/27 10:39:26;;;;;;;30.52;10.05;;;;;;;;;;5040269;28;20049;-80
2024/01/27 10:41:52;;;;;;;30.42;11.85;;;;;;;;;;5040447;28;20079;-81
2024/01/27 10:44:19;;;;;;;30.75;11.30;;;;;;;;;;5040801;28;20050;-81
2024/01/27 10:46:49;;;;;;;31.48;10.55;;;;;;;;;;5023770;28;20041;-81
2024/01/27 10:49:16;;;;;;;31.90;9.20;;;;;;;;;;5038182;28;20148;-80
2024/01/27 10:51:47;;;;;;;26.98;9.20;;;;;;;;;;5041342;28;20052;-81
2024/01/27 10:54:15;;;;;;;30.20;9.73;;;;;;;;;;5041569;28;20045;-80
2024/01/27 10:56:44;;;;;;;27.85;9.25;;;;;;;;;;5040797;28;20101;-80
2024/01/27 10:59:11;;;;;;;28.15;10.65;;;;;;;;;;5024730;28;20046;-81
2024/01/27 11:01:38;;;;;;;31.02;11.98;;;;;;;;;;5021324;28;20054;-81
2024/01/27 11:04:07;;;;;;;29.90;9.25;;;;;;;;;;5021221;28;20452;-81
2024/01/27 11:06:34;;;;;;;25.77;9.07;;;;;;;;;;5036587;28;20483;-81
2024/01/27 11:09:05;;;;;;;27.17;8.35;;;;;;;;;;5040161;28;20065;-81
2024/01/27 11:11:31;;;;;;;21.40;8.02;;;;;;;;;;5023706;28;20045;-81
2024/01/27 11:13:58;;;;;;;30.80;8.75;;;;;;;;;;5041013;28;20053;-81
2024/01/27 11:16:24;;;;;;;25.00;7.75;;;;;;;;;;5040383;28;20053;-81
2024/01/27 11:18:51;;;;;;;29.85;9.05;;;;;;;;;;5033796;28;20045;-81
2024/01/27 11:21:17;;;;;;;27.45;8.00;;;;;;;;;;5040471;28;20046;-81
2024/01/27 11:23:46;;;;;;;24.02;8.05;;;;;;;;;;5041246;28;20045;-80
2024/01/27 11:26:17;;;;;;;24.40;7.03;;;;;;;;;;5040106;28;20075;-80
2024/01/27 11:28:44;;;;;;;25.40;7.03;;;;;;;;;;5040089;28;20096;-80
2024/01/27 11:31:10;;;;;;;22.42;7.22;;;;;;;;;;5040044;28;20072;-80
2024/01/27 11:33:43;;;;;;;20.95;6.30;;;;;;;;;;5006588;28;20057;-80
2024/01/27 11:36:18;;;;;;;22.17;6.38;;;;;;;;;;5038578;28;20148;-81
2024/01/27 11:38:44;;;;;;;20.15;6.18;;;;;;;;;;5035323;28;20037;-81
2024/01/27 11:41:10;;;;;;;23.60;6.38;;;;;;;;;;5042428;28;20049;-80
2024/01/27 11:43:36;;;;;;;23.50;6.13;;;;;;;;;;5043912;28;20037;-80
2024/01/27 11:46:02;;;;;;;23.35;6.45;;;;;;;;;;5044509;28;20053;-81
2024/01/27 11:48:29;;;;;;;18.67;5.93;;;;;;;;;;5044376;28;20052;-81
2024/01/27 11:51:06;;;;;;;21.33;6.05;;;;;;;;;;5026998;28;20046;-79
2024/01/27 11:53:32;;;;;;;20.95;5.63;;;;;;;;;;5044872;28;20057;-80
2024/01/27 11:56:00;;;;;;;17.75;5.38;;;;;;;;;;5044261;28;20057;-81
2024/01/27 11:58:26;;;;;;;22.88;6.43;;;;;;;;;;5043768;28;20048;-81
2024/01/27 12:00:52;;;;;;;23.45;6.00;;;;;;;;;;5044048;28;20109;-81
2024/01/27 12:03:18;;;;;;;23.20;6.72;;;;;;;;;;5045557;28;20049;-80
2024/01/27 12:05:45;;;;;;;22.05;5.60;;;;;;;;;;5042967;28;20041;-81
2024/01/27 12:08:11;;;;;;;29.10;6.20;;;;;;;;;;5024910;28;20964;-80
2024/01/27 12:10:37;;;;;;;19.75;5.50;;;;;;;;;;5040209;28;20053;-81
2024/01/27 12:13:03;;;;;;;20.45;5.95;;;;;;;;;;5036955;28;20104;-81
2024/01/27 12:15:29;;;;;;;23.35;5.97;;;;;;;;;;5016887;28;20067;-79
2024/01/27 12:17:56;;;;;;;21.13;5.80;;;;;;;;;;5040596;28;20051;-81
2024/01/27 12:20:25;;;;;;;23.08;5.40;;;;;;;;;;5032312;28;20046;-81
2024/01/27 12:23:02;;;;;;;19.38;5.50;;;;;;;;;;5043873;28;20048;-81
2024/01/27 12:25:28;;;;;;;23.00;6.25;;;;;;;;;;5043303;28;20054;-81
2024/01/27 12:27:54;;;;;;;20.42;5.65;;;;;;;;;;5038854;28;20450;-82
2024/01/27 12:30:21;;;;;;;20.80;5.53;;;;;;;;;;5039813;28;20053;-81
2024/01/27 12:32:48;;;;;;;21.98;6.18;;;;;;;;;;5023726;28;20053;-81
2024/01/27 12:35:14;;;;;;;25.20;6.38;;;;;;;;;;5040198;28;20049;-81
2024/01/27 12:37:40;;;;;;;16.40;5.90;;;;;;;;;;5049857;28;20045;-81
2024/01/27 12:40:22;;;;;;;26.48;6.05;;;;;;;;;;5043832;28;20082;-80
2024/01/27 12:42:48;;;;;;;19.55;5.45;;;;;;;;;;5042841;28;20117;-81
2024/01/27 12:45:14;;;;;;;16.98;5.13;;;;;;;;;;5041340;28;20058;-80
2024/01/27 12:47:41;;;;;;;23.52;5.53;;;;;;;;;;5036345;28;20070;-80
2024/01/27 12:50:07;;;;;;;17.80;5.68;;;;;;;;;;5038387;28;20053;-80
2024/01/27 12:52:33;;;;;;;22.95;5.35;;;;;;;;;;5041039;28;20050;-80
2024/01/27 12:54:59;;;;;;;24.48;5.03;;;;;;;;;;5042883;28;20053;-80
2024/01/27 12:57:25;;;;;;;19.75;5.00;;;;;;;;;;5049019;28;20049;-80
2024/01/27 12:59:52;;;;;;;19.92;5.10;;;;;;;;;;5028232;28;20109;-80
2024/01/27 13:02:18;;;;;;;18.63;4.68;;;;;;;;;;5040612;28;20366;-80
2024/01/27 13:04:44;;;;;;;18.88;4.78;;;;;;;;;;5035032;28;20551;-80
2024/01/27 13:07:10;;;;;;;20.90;4.45;;;;;;;;;;5040601;28;20164;-80
2024/01/27 13:09:37;;;;;;;21.55;5.20;;;;;;;;;;5040245;28;20076;-80
2024/01/27 13:12:05;;;;;;;27.40;5.00;;;;;;;;;;5045986;28;20199;-81
2024/01/27 13:14:31;;;;;;;20.42;4.80;;;;;;;;;;5042213;28;20049;-80
2024/01/27 13:16:59;;;;;;;26.20;4.80;;;;;;;;;;5040751;28;20050;-80
2024/01/27 13:19:25;;;;;;;17.52;4.25;;;;;;;;;;5044251;28;20041;-80
2024/01/27 13:21:51;;;;;;;24.42;4.53;;;;;;;;;;5058013;28;20041;-80
2024/01/27 13:24:17;;;;;;;16.70;3.88;;;;;;;;;;5042859;28;20064;-79
2024/01/27 13:26:43;;;;;;;20.33;5.15;;;;;;;;;;5039727;28;20045;-80
2024/01/27 13:29:09;;;;;;;20.00;4.20;;;;;;;;;;5042090;28;20103;-80
2024/01/27 13:31:35;;;;;;;20.20;4.70;;;;;;;;;;5042293;28;20120;-80
2024/01/27 13:34:01;;;;;;;18.50;4.15;;;;;;;;;;5041846;28;20076;-80
2024/01/27 13:36:27;;;;;;;17.27;4.00;;;;;;;;;;5040962;28;20075;-80
2024/01/27 13:38:53;;;;;;;19.80;4.57;;;;;;;;;;5024075;28;20060;-80
2024/01/27 13:41:19;;;;;;;17.20;3.92;;;;;;;;;;5041842;28;20048;-81
2024/01/27 13:43:46;;;;;;;15.82;3.78;;;;;;;;;;5041775;28;20387;-80
2024/01/27 13:46:12;;;;;;;21.08;4.03;;;;;;;;;;5040488;28;20073;-80
2024/01/27 13:48:38;;;;;;;17.67;4.40;;;;;;;;;;5041271;28;20095;-80
2024/01/27 13:51:04;;;;;;;19.90;4.80;;;;;;;;;;5041158;28;20384;-80
2024/01/27 13:53:30;;;;;;;21.58;5.05;;;;;;;;;;5041229;28;20105;-80
2024/01/27 13:55:56;;;;;;;19.58;4.70;;;;;;;;;;5040558;28;20041;-81
2024/01/27 13:58:23;;;;;;;13.63;3.83;;;;;;;;;;5041022;28;20041;-81
2024/01/27 14:00:49;;;;;;;21.73;4.50;;;;;;;;;;5034903;28;20117;-80
2024/01/27 14:03:15;;;;;;;20.05;5.03;;;;;;;;;;5037554;28;20049;-80
2024/01/27 14:05:42;;;;;;;23.33;5.03;;;;;;;;;;5040537;28;20128;-81
2024/01/27 14:08:10;;;;;;;18.02;4.13;;;;;;;;;;5040345;28;20057;-80
2024/01/27 14:10:36;;;;;;;21.98;4.25;;;;;;;;;;5040362;28;20044;-81
2024/01/27 14:13:04;;;;;;;24.25;4.47;;;;;;;;;;5029697;28;20129;-80
2024/01/27 14:15:30;;;;;;;15.05;4.15;;;;;;;;;;5032907;28;20429;-81
2024/01/27 14:17:57;;;;;;;23.70;4.93;;;;;;;;;;5022032;28;20057;-81
2024/01/27 14:20:23;;;;;;;17.58;5.30;;;;;;;;;;5040746;28;20056;-81
2024/01/27 14:22:49;;;;;;;18.55;4.70;;;;;;;;;;5038768;28;20053;-80
2024/01/27 14:25:15;;;;;;;17.13;5.25;;;;;;;;;;5042726;28;20049;-80